Time;durP1;ratioP1;P1;durP2;ratioP2;P2;SDS_P1;SDS_P2;PMS_P1;PMS_P2;Temp;Humidity;BMP_temperature;BMP_pressure;BME280_temperature;BME280_humidity;BME280_pressure;Samples;Min_cycle;Max_cycle;Signal;HPM_P1;HPM_P2
2023/03/13 00:01:54;;;;;;;17.30;5.03;;;;;;;;;;7391064;19;19994;-67
2023/03/13 00:04:19;;;;;;;18.58;4.53;;;;;;;;;;7386098;19;20010;-68
2023/03/13 00:06:44;;;;;;;15.27;4.30;;;;;;;;;;7388461;19;19994;-68
2023/03/13 00:09:12;;;;;;;19.67;4.28;;;;;;;;;;7387582;19;20028;-67
2023/03/13 00:11:37;;;;;;;18.17;4.13;;;;;;;;;;7387820;19;20003;-68
2023/03/13 00:14:04;;;;;;;21.10;3.70;;;;;;;;;;7387943;19;20001;-67
2023/03/13 00:16:30;;;;;;;13.07;3.58;;;;;;;;;;7387314;19;19999;-67
2023/03/13 00:18:57;;;;;;;15.15;3.60;;;;;;;;;;7387727;19;20005;-69
2023/03/13 00:21:25;;;;;;;18.45;4.00;;;;;;;;;;7387921;19;20002;-67
2023/03/13 00:23:50;;;;;;;15.95;3.88;;;;;;;;;;7387965;19;20400;-68
2023/03/13 00:26:18;;;;;;;15.02;3.45;;;;;;;;;;7388227;19;19991;-69
2023/03/13 00:28:44;;;;;;;16.60;4.13;;;;;;;;;;7388159;19;19994;-69
2023/03/13 00:31:19;;;;;;;18.73;3.97;;;;;;;;;;7388388;19;20026;-67
2023/03/13 00:33:47;;;;;;;14.35;3.38;;;;;;;;;;7387603;19;20468;-67
2023/03/13 00:36:15;;;;;;;14.05;3.40;;;;;;;;;;7386776;19;19999;-67
2023/03/13 00:38:41;;;;;;;16.83;3.33;;;;;;;;;;7385410;19;20036;-69
2023/03/13 00:41:11;;;;;;;11.82;2.65;;;;;;;;;;7387536;19;20003;-67
2023/03/13 00:43:37;;;;;;;13.20;2.80;;;;;;;;;;7386844;19;19998;-67
2023/03/13 00:46:03;;;;;;;10.05;2.55;;;;;;;;;;7388053;19;20023;-67
2023/03/13 00:48:28;;;;;;;12.02;2.60;;;;;;;;;;7387543;19;20126;-67
2023/03/13 00:50:54;;;;;;;9.73;2.33;;;;;;;;;;7384700;19;19998;-67
2023/03/13 00:53:19;;;;;;;14.55;3.30;;;;;;;;;;7386211;19;19990;-67
2023/03/13 00:55:59;;;;;;;13.05;2.72;;;;;;;;;;7385918;19;19995;-68
2023/03/13 00:58:27;;;;;;;11.70;2.83;;;;;;;;;;7387703;19;20003;-68
2023/03/13 01:00:53;;;;;;;8.88;2.40;;;;;;;;;;7385869;19;19998;-68
2023/03/13 01:03:20;;;;;;;12.27;2.55;;;;;;;;;;7386771;19;19995;-68
2023/03/13 01:05:55;;;;;;;12.07;2.80;;;;;;;;;;7387516;19;20005;-68
2023/03/13 01:08:20;;;;;;;13.13;3.15;;;;;;;;;;7385559;19;20018;-67
2023/03/13 01:10:45;;;;;;;11.73;2.25;;;;;;;;;;7385194;19;19997;-67
2023/03/13 01:13:11;;;;;;;11.07;2.75;;;;;;;;;;7384599;19;20050;-68
2023/03/13 01:15:36;;;;;;;15.60;3.05;;;;;;;;;;7386922;19;20054;-68
2023/03/13 01:18:02;;;;;;;9.52;2.47;;;;;;;;;;7385635;19;20104;-68
2023/03/13 01:20:29;;;;;;;10.98;2.60;;;;;;;;;;7383446;19;20006;-68
2023/03/13 01:22:54;;;;;;;11.32;2.53;;;;;;;;;;7386513;19;19999;-68
2023/03/13 01:25:20;;;;;;;13.88;3.22;;;;;;;;;;7386522;19;19998;-68
2023/03/13 01:27:45;;;;;;;13.07;2.67;;;;;;;;;;7387853;19;20017;-68
2023/03/13 01:30:11;;;;;;;11.50;2.67;;;;;;;;;;7387810;19;20019;-68
2023/03/13 01:32:36;;;;;;;11.30;2.55;;;;;;;;;;7386218;19;19991;-68
2023/03/13 01:35:01;;;;;;;11.77;2.45;;;;;;;;;;7385998;19;19994;-69
2023/03/13 01:37:27;;;;;;;14.20;2.83;;;;;;;;;;7384260;19;20003;-68
2023/03/13 01:39:52;;;;;;;13.30;2.38;;;;;;;;;;7384590;19;20018;-67
2023/03/13 01:42:17;;;;;;;9.40;2.55;;;;;;;;;;7384303;19;20033;-68
2023/03/13 01:44:51;;;;;;;13.43;2.50;;;;;;;;;;7385377;19;20005;-68
2023/03/13 01:47:17;;;;;;;10.35;2.13;;;;;;;;;;7386215;19;20062;-66
2023/03/13 01:49:43;;;;;;;11.55;2.70;;;;;;;;;;7384552;19;20003;-68
2023/03/13 01:52:20;;;;;;;15.02;3.00;;;;;;;;;;7384939;19;20002;-67
2023/03/13 01:54:50;;;;;;;10.07;2.33;;;;;;;;;;7384941;19;20044;-68
2023/03/13 01:57:23;;;;;;;11.77;2.67;;;;;;;;;;7383822;19;19991;-67
2023/03/13 01:59:55;;;;;;;10.50;2.47;;;;;;;;;;7384203;19;20548;-68
2023/03/13 02:02:21;;;;;;;8.15;2.33;;;;;;;;;;7384426;19;20009;-67
2023/03/13 02:04:53;;;;;;;16.08;2.72;;;;;;;;;;7384446;19;20006;-67
2023/03/13 02:07:26;;;;;;;16.67;2.45;;;;;;;;;;7384920;19;20500;-67
2023/03/13 02:09:54;;;;;;;10.50;2.60;;;;;;;;;;7384132;19;20035;-67
2023/03/13 02:12:29;;;;;;;11.68;2.15;;;;;;;;;;7380576;19;20353;-68
2023/03/13 02:14:56;;;;;;;12.40;2.60;;;;;;;;;;7384235;19;20323;-67
2023/03/13 02:17:23;;;;;;;9.10;2.50;;;;;;;;;;7382602;19;19999;-68
2023/03/13 02:19:53;;;;;;;12.95;2.60;;;;;;;;;;7381727;19;20018;-68
2023/03/13 02:22:26;;;;;;;15.47;2.57;;;;;;;;;;7380225;19;20002;-68
2023/03/13 02:25:02;;;;;;;13.75;2.75;;;;;;;;;;7386974;19;20014;-68
2023/03/13 02:27:28;;;;;;;15.07;2.90;;;;;;;;;;7386572;19;19991;-68
2023/03/13 02:29:53;;;;;;;11.02;2.50;;;;;;;;;;7384459;19;20397;-68
2023/03/13 02:32:19;;;;;;;12.13;2.65;;;;;;;;;;7387769;19;20015;-68
2023/03/13 02:34:48;;;;;;;11.50;2.58;;;;;;;;;;7383568;19;20376;-68
2023/03/13 02:37:14;;;;;;;10.65;2.35;;;;;;;;;;7383103;19;20028;-68
2023/03/13 02:39:46;;;;;;;12.00;2.47;;;;;;;;;;7383001;19;20081;-68
2023/03/13 02:42:13;;;;;;;7.40;2.10;;;;;;;;;;7383356;19;20015;-68
2023/03/13 02:44:40;;;;;;;7.75;2.10;;;;;;;;;;7383377;19;20007;-67
2023/03/13 02:47:08;;;;;;;12.10;2.47;;;;;;;;;;7383980;19;20471;-67
2023/03/13 02:49:34;;;;;;;13.95;2.63;;;;;;;;;;7382600;19;20062;-67
2023/03/13 02:52:10;;;;;;;17.75;2.60;;;;;;;;;;7383717;19;20006;-67
2023/03/13 02:54:38;;;;;;;7.53;2.22;;;;;;;;;;7383535;19;19999;-67
2023/03/13 02:57:04;;;;;;;12.20;2.40;;;;;;;;;;7382464;19;20003;-67
2023/03/13 02:59:30;;;;;;;7.22;2.28;;;;;;;;;;7382866;19;20007;-67
2023/03/13 03:01:55;;;;;;;14.27;2.65;;;;;;;;;;7383477;19;20313;-68
2023/03/13 03:04:22;;;;;;;13.30;2.85;;;;;;;;;;7381426;19;20031;-68
2023/03/13 03:06:48;;;;;;;10.75;2.42;;;;;;;;;;7383800;19;20092;-68
2023/03/13 03:09:14;;;;;;;12.23;2.20;;;;;;;;;;7381421;19;20009;-68
2023/03/13 03:11:39;;;;;;;9.20;2.40;;;;;;;;;;7383269;19;20501;-68
2023/03/13 03:14:05;;;;;;;11.73;2.15;;;;;;;;;;7382990;19;20078;-68
2023/03/13 03:16:30;;;;;;;12.98;2.47;;;;;;;;;;7389509;19;20009;-68
2023/03/13 03:18:56;;;;;;;8.07;2.50;;;;;;;;;;7390318;19;19998;-68
2023/03/13 03:21:24;;;;;;;14.10;2.65;;;;;;;;;;7387986;19;20018;-68
2023/03/13 03:23:50;;;;;;;6.80;2.30;;;;;;;;;;7390107;19;20073;-68
2023/03/13 03:26:16;;;;;;;9.43;2.47;;;;;;;;;;7394804;19;20002;-68
2023/03/13 03:28:42;;;;;;;10.70;2.25;;;;;;;;;;7390235;19;20106;-68
2023/03/13 03:31:09;;;;;;;8.65;2.30;;;;;;;;;;7389595;19;20070;-68
2023/03/13 03:33:36;;;;;;;9.38;2.17;;;;;;;;;;7393986;19;20021;-68
2023/03/13 03:36:04;;;;;;;9.70;2.30;;;;;;;;;;7389225;19;20647;-68
2023/03/13 03:38:30;;;;;;;14.40;3.13;;;;;;;;;;7389458;19;20006;-68
2023/03/13 03:40:55;;;;;;;7.32;2.35;;;;;;;;;;7389270;19;20029;-68
2023/03/13 03:43:21;;;;;;;5.32;1.73;;;;;;;;;;7389376;19;20009;-68
2023/03/13 03:45:46;;;;;;;9.10;2.03;;;;;;;;;;7389487;19;20455;-68
2023/03/13 03:48:11;;;;;;;3.72;1.60;;;;;;;;;;7389259;19;20010;-68
2023/03/13 03:50:36;;;;;;;7.68;2.10;;;;;;;;;;7386816;19;20017;-67
2023/03/13 03:53:02;;;;;;;4.45;1.55;;;;;;;;;;7388976;19;19998;-68
2023/03/13 03:55:27;;;;;;;5.25;1.70;;;;;;;;;;7388610;19;20388;-68
2023/03/13 03:57:53;;;;;;;3.40;1.67;;;;;;;;;;7389087;19;20011;-68
2023/03/13 04:00:18;;;;;;;4.00;1.48;;;;;;;;;;7384705;19;20024;-68
2023/03/13 04:02:44;;;;;;;3.25;1.70;;;;;;;;;;7389356;19;20006;-68
2023/03/13 04:05:09;;;;;;;6.65;1.70;;;;;;;;;;7388780;19;20019;-68
2023/03/13 04:07:34;;;;;;;4.40;1.70;;;;;;;;;;7386657;19;20009;-68
2023/03/13 04:10:00;;;;;;;2.15;1.23;;;;;;;;;;7386642;19;20003;-68
2023/03/13 04:12:26;;;;;;;4.97;1.60;;;;;;;;;;7386600;19;20006;-68
2023/03/13 04:14:51;;;;;;;1.70;1.17;;;;;;;;;;7391385;19;20002;-68
2023/03/13 04:17:16;;;;;;;5.60;2.10;;;;;;;;;;7384924;19;20472;-68
2023/03/13 04:19:42;;;;;;;2.58;1.20;;;;;;;;;;7386789;19;20019;-68
2023/03/13 04:22:07;;;;;;;5.28;1.92;;;;;;;;;;7387910;19;20003;-68
2023/03/13 04:24:32;;;;;;;3.15;1.35;;;;;;;;;;7387557;19;20302;-68
2023/03/13 04:26:58;;;;;;;3.65;1.10;;;;;;;;;;7386038;19;20326;-68
2023/03/13 04:29:23;;;;;;;3.38;1.58;;;;;;;;;;7387400;19;19999;-68
2023/03/13 04:31:49;;;;;;;2.88;1.08;;;;;;;;;;7385545;19;20024;-67
2023/03/13 04:34:14;;;;;;;6.05;1.23;;;;;;;;;;7386961;19;20010;-67
2023/03/13 04:36:40;;;;;;;2.72;1.10;;;;;;;;;;7386465;19;19999;-67
2023/03/13 04:39:05;;;;;;;1.85;0.98;;;;;;;;;;7387459;19;20018;-67
2023/03/13 04:41:30;;;;;;;2.60;1.10;;;;;;;;;;7387641;19;20005;-67
2023/03/13 04:43:56;;;;;;;4.30;1.50;;;;;;;;;;7387455;19;19995;-68
2023/03/13 04:46:21;;;;;;;4.07;1.65;;;;;;;;;;7388054;19;19995;-67
2023/03/13 04:48:46;;;;;;;2.97;1.30;;;;;;;;;;7387373;19;19999;-67
2023/03/13 04:51:12;;;;;;;3.28;1.40;;;;;;;;;;7387295;19;19995;-67
2023/03/13 04:53:37;;;;;;;2.33;1.55;;;;;;;;;;7386876;19;20003;-67
2023/03/13 04:56:03;;;;;;;3.38;1.73;;;;;;;;;;7386638;19;19994;-67
2023/03/13 04:58:28;;;;;;;3.55;1.92;;;;;;;;;;7387942;19;19998;-67
2023/03/13 05:00:55;;;;;;;7.25;3.40;;;;;;;;;;7381815;19;19998;-68
2023/03/13 05:03:21;;;;;;;4.68;1.67;;;;;;;;;;7387019;19;20010;-68
2023/03/13 05:05:49;;;;;;;6.78;2.33;;;;;;;;;;7388192;19;20469;-69
2023/03/13 05:08:15;;;;;;;3.88;2.42;;;;;;;;;;7389908;19;20002;-68
2023/03/13 05:10:43;;;;;;;3.28;1.80;;;;;;;;;;7388190;19;20023;-67
2023/03/13 05:13:09;;;;;;;2.88;1.67;;;;;;;;;;7333106;19;20367;-68
2023/03/13 05:15:34;;;;;;;6.93;3.05;;;;;;;;;;7387166;19;20031;-68
2023/03/13 05:18:00;;;;;;;4.03;2.38;;;;;;;;;;7387504;19;20772;-67
2023/03/13 05:20:25;;;;;;;4.10;2.10;;;;;;;;;;7387862;19;20555;-67
2023/03/13 05:22:50;;;;;;;4.45;2.40;;;;;;;;;;7383630;19;19998;-67
2023/03/13 05:25:16;;;;;;;7.55;3.33;;;;;;;;;;7384730;19;20647;-68
2023/03/13 05:27:41;;;;;;;6.55;4.85;;;;;;;;;;7385009;19;19999;-68
2023/03/13 05:30:07;;;;;;;7.68;3.63;;;;;;;;;;7383588;19;20553;-67
2023/03/13 05:32:32;;;;;;;5.32;3.33;;;;;;;;;;7381481;19;20050;-66
2023/03/13 05:34:58;;;;;;;7.75;3.20;;;;;;;;;;7385495;19;20062;-67
2023/03/13 05:37:23;;;;;;;6.65;3.20;;;;;;;;;;7381878;19;20492;-67
2023/03/13 05:39:48;;;;;;;5.43;2.85;;;;;;;;;;7382474;19;20006;-67
2023/03/13 05:42:14;;;;;;;5.85;3.00;;;;;;;;;;7386662;19;20334;-67
2023/03/13 05:44:39;;;;;;;5.15;2.92;;;;;;;;;;7388216;19;19999;-66
2023/03/13 05:47:04;;;;;;;5.53;3.13;;;;;;;;;;7386671;19;19998;-68
2023/03/13 05:49:30;;;;;;;5.68;3.05;;;;;;;;;;7387866;19;20024;-66
2023/03/13 05:51:55;;;;;;;4.80;2.42;;;;;;;;;;7384906;19;19995;-66
2023/03/13 05:54:20;;;;;;;5.82;3.42;;;;;;;;;;7385728;19;20142;-67
2023/03/13 05:56:49;;;;;;;5.38;3.30;;;;;;;;;;7385149;19;20002;-66
2023/03/13 05:59:14;;;;;;;6.03;3.40;;;;;;;;;;7384552;19;20009;-66
2023/03/13 06:01:39;;;;;;;6.10;3.35;;;;;;;;;;7386676;19;20357;-66
2023/03/13 06:04:05;;;;;;;7.32;3.50;;;;;;;;;;7384267;19;20003;-66
2023/03/13 06:06:30;;;;;;;7.03;3.90;;;;;;;;;;7384364;19;20003;-66
2023/03/13 06:08:55;;;;;;;7.20;3.50;;;;;;;;;;7384061;19;19999;-66
2023/03/13 06:11:20;;;;;;;8.25;3.72;;;;;;;;;;7384698;19;19994;-67
2023/03/13 06:13:46;;;;;;;6.57;4.28;;;;;;;;;;7388270;19;20074;-67
2023/03/13 06:16:11;;;;;;;8.90;4.35;;;;;;;;;;7384287;19;20003;-67
2023/03/13 06:18:36;;;;;;;8.52;3.92;;;;;;;;;;7388587;19;20308;-67
2023/03/13 06:21:02;;;;;;;7.28;3.45;;;;;;;;;;7384280;19;20437;-67
2023/03/13 06:23:27;;;;;;;7.25;3.92;;;;;;;;;;7387467;19;20006;-67
2023/03/13 06:25:54;;;;;;;6.75;3.55;;;;;;;;;;7386735;19;20467;-67
2023/03/13 06:28:20;;;;;;;5.95;3.55;;;;;;;;;;7388532;19;20305;-67
2023/03/13 06:30:46;;;;;;;6.07;3.15;;;;;;;;;;7383051;19;20003;-67
2023/03/13 06:33:11;;;;;;;5.15;3.20;;;;;;;;;;7386332;19;20006;-67
2023/03/13 06:35:41;;;;;;;5.78;3.10;;;;;;;;;;7386767;19;20002;-68
2023/03/13 06:38:08;;;;;;;4.28;2.60;;;;;;;;;;7385897;19;20006;-70
2023/03/13 06:40:33;;;;;;;5.47;2.85;;;;;;;;;;7384383;19;19998;-68
2023/03/13 06:42:58;;;;;;;6.00;2.80;;;;;;;;;;7386176;19;20009;-67
2023/03/13 06:45:24;;;;;;;7.00;3.08;;;;;;;;;;7384295;19;20101;-67
2023/03/13 06:47:52;;;;;;;4.68;2.90;;;;;;;;;;7386914;19;20184;-69
2023/03/13 06:50:17;;;;;;;3.65;2.50;;;;;;;;;;7385926;19;20356;-67
2023/03/13 06:52:43;;;;;;;5.10;2.70;;;;;;;;;;7393833;19;20070;-67
2023/03/13 06:55:09;;;;;;;5.00;3.08;;;;;;;;;;7392024;19;20010;-67
2023/03/13 06:57:35;;;;;;;5.00;3.00;;;;;;;;;;7390917;19;20002;-67
2023/03/13 07:00:00;;;;;;;6.25;3.00;;;;;;;;;;7388437;19;20018;-67
2023/03/13 07:02:25;;;;;;;6.07;2.97;;;;;;;;;;7392894;19;20110;-68
2023/03/13 07:04:51;;;;;;;4.20;2.53;;;;;;;;;;7391252;19;20030;-69
2023/03/13 07:07:16;;;;;;;5.30;2.85;;;;;;;;;;7390325;19;20073;-67
2023/03/13 07:09:50;;;;;;;4.18;2.55;;;;;;;;;;7395313;19;20003;-69
2023/03/13 07:12:18;;;;;;;4.55;2.65;;;;;;;;;;7391512;19;19998;-70
2023/03/13 07:14:53;;;;;;;5.53;2.67;;;;;;;;;;7393260;19;20005;-71
2023/03/13 07:17:24;;;;;;;5.45;2.45;;;;;;;;;;7391074;19;19998;-71
2023/03/13 07:19:50;;;;;;;3.40;2.20;;;;;;;;;;7388396;19;20727;-68
2023/03/13 07:22:16;;;;;;;3.35;2.30;;;;;;;;;;7390219;19;20563;-71
2023/03/13 07:24:45;;;;;;;4.82;2.38;;;;;;;;;;7388685;19;20011;-68
2023/03/13 07:27:11;;;;;;;3.00;2.13;;;;;;;;;;7389619;19;20050;-68
2023/03/13 07:29:42;;;;;;;2.80;1.90;;;;;;;;;;7389151;19;19998;-68
2023/03/13 07:32:07;;;;;;;3.58;1.80;;;;;;;;;;7390859;19;20003;-68
2023/03/13 07:34:39;;;;;;;2.88;1.77;;;;;;;;;;7391090;19;20022;-69
2023/03/13 07:37:04;;;;;;;3.25;1.88;;;;;;;;;;7392044;19;20012;-66
2023/03/13 07:39:30;;;;;;;4.45;2.00;;;;;;;;;;7392408;19;20399;-75
2023/03/13 07:41:55;;;;;;;3.92;1.95;;;;;;;;;;7393945;19;20003;-76
2023/03/13 07:44:20;;;;;;;4.68;2.55;;;;;;;;;;7391221;19;20032;-76
2023/03/13 07:46:47;;;;;;;2.95;1.98;;;;;;;;;;7391119;19;20010;-76
2023/03/13 07:49:12;;;;;;;2.90;1.90;;;;;;;;;;7389253;19;20358;-75
2023/03/13 07:51:38;;;;;;;5.53;2.80;;;;;;;;;;7389048;19;20006;-73
2023/03/13 07:54:03;;;;;;;3.40;2.13;;;;;;;;;;7395630;19;20017;-74
2023/03/13 07:56:29;;;;;;;3.65;2.03;;;;;;;;;;7389460;19;19999;-76
2023/03/13 07:58:54;;;;;;;3.05;2.13;;;;;;;;;;7391558;19;20378;-76
2023/03/13 08:01:23;;;;;;;3.33;2.22;;;;;;;;;;7388492;19;20003;-78
2023/03/13 08:03:49;;;;;;;6.22;2.40;;;;;;;;;;7389970;19;19994;-75
2023/03/13 08:06:20;;;;;;;4.55;2.20;;;;;;;;;;7394687;19;20019;-77
2023/03/13 08:08:46;;;;;;;5.55;2.60;;;;;;;;;;7389853;19;20021;-76
2023/03/13 08:11:13;;;;;;;4.32;2.50;;;;;;;;;;7389298;19;20464;-75
2023/03/13 08:13:40;;;;;;;4.28;2.30;;;;;;;;;;7390325;19;20009;-76
2023/03/13 08:16:11;;;;;;;6.30;2.55;;;;;;;;;;7389949;19;20324;-76
2023/03/13 08:18:38;;;;;;;5.05;3.35;;;;;;;;;;7389183;19;20023;-77
2023/03/13 08:21:08;;;;;;;9.70;2.85;;;;;;;;;;7390207;19;20528;-77
2023/03/13 08:23:34;;;;;;;7.53;3.05;;;;;;;;;;7389438;19;20472;-76
2023/03/13 08:26:05;;;;;;;4.25;2.58;;;;;;;;;;7389062;19;20013;-75
2023/03/13 08:28:30;;;;;;;6.50;2.80;;;;;;;;;;7374895;19;20242;-76
2023/03/13 08:30:55;;;;;;;5.75;2.58;;;;;;;;;;7391195;19;19994;-76
2023/03/13 08:33:21;;;;;;;4.00;2.20;;;;;;;;;;7390659;19;20472;-75
2023/03/13 08:35:46;;;;;;;4.47;2.85;;;;;;;;;;7390869;19;20014;-75
2023/03/13 08:38:11;;;;;;;5.38;2.58;;;;;;;;;;7388385;19;20355;-75
2023/03/13 08:40:37;;;;;;;4.03;2.58;;;;;;;;;;7391774;19;19998;-74
2023/03/13 08:43:02;;;;;;;5.05;2.85;;;;;;;;;;7387125;19;19995;-73
2023/03/13 08:45:27;;;;;;;5.50;2.90;;;;;;;;;;7389558;19;20019;-76
2023/03/13 08:47:53;;;;;;;5.55;2.83;;;;;;;;;;7389667;19;19999;-76
2023/03/13 08:50:18;;;;;;;6.75;3.05;;;;;;;;;;7392533;19;19999;-76
2023/03/13 08:52:44;;;;;;;5.20;2.72;;;;;;;;;;7390581;19;20329;-75
2023/03/13 08:55:10;;;;;;;7.72;3.58;;;;;;;;;;7392057;19;20548;-76
2023/03/13 08:57:35;;;;;;;4.97;2.95;;;;;;;;;;7388136;19;20714;-76
2023/03/13 09:00:00;;;;;;;5.82;2.72;;;;;;;;;;7388344;19;20001;-76
2023/03/13 09:02:26;;;;;;;7.30;3.20;;;;;;;;;;7391115;19;19998;-75
2023/03/13 09:04:51;;;;;;;4.35;2.63;;;;;;;;;;7389864;19;20471;-76
2023/03/13 09:07:16;;;;;;;4.38;2.63;;;;;;;;;;7391449;19;19999;-74
2023/03/13 09:09:42;;;;;;;5.07;2.67;;;;;;;;;;7391816;19;19994;-75
2023/03/13 09:12:08;;;;;;;4.95;2.92;;;;;;;;;;7392943;19;19995;-74
2023/03/13 09:14:33;;;;;;;4.85;2.70;;;;;;;;;;7394730;19;20015;-75
2023/03/13 09:16:59;;;;;;;5.22;2.20;;;;;;;;;;7394898;19;19994;-77
2023/03/13 09:19:24;;;;;;;4.35;2.30;;;;;;;;;;7389790;19;20022;-75
2023/03/13 09:21:49;;;;;;;6.70;3.33;;;;;;;;;;7391275;19;20006;-76
2023/03/13 09:24:15;;;;;;;5.90;3.55;;;;;;;;;;7388372;19;19995;-77
2023/03/13 09:26:40;;;;;;;4.13;2.28;;;;;;;;;;7393882;19;19995;-77
2023/03/13 09:29:06;;;;;;;4.13;2.25;;;;;;;;;;7389066;19;20023;-76
2023/03/13 09:31:32;;;;;;;5.03;2.53;;;;;;;;;;7392014;19;19998;-76
2023/03/13 09:33:58;;;;;;;5.53;2.90;;;;;;;;;;7389344;19;20612;-77
2023/03/13 09:36:25;;;;;;;3.50;2.25;;;;;;;;;;7390837;19;19998;-77
2023/03/13 09:38:51;;;;;;;6.70;2.60;;;;;;;;;;7385267;19;20006;-75
2023/03/13 09:41:25;;;;;;;6.28;2.92;;;;;;;;;;7389581;19;20105;-76
2023/03/13 09:43:51;;;;;;;5.50;2.80;;;;;;;;;;7387128;19;20001;-75
2023/03/13 09:46:27;;;;;;;8.50;2.65;;;;;;;;;;7389007;19;20400;-75
2023/03/13 09:49:01;;;;;;;4.93;2.90;;;;;;;;;;7389864;19;20747;-74
2023/03/13 09:51:31;;;;;;;6.57;2.90;;;;;;;;;;7389170;19;20464;-75
2023/03/13 09:54:02;;;;;;;4.72;2.65;;;;;;;;;;7386858;19;20524;-75
2023/03/13 09:56:30;;;;;;;;;;;;;;;;;;7389559;19;20055;-76
2023/03/13 09:59:10;;;;;;;6.15;2.55;;;;;;;;;;7387675;19;19915;-75
2023/03/13 10:01:39;;;;;;;6.90;2.92;;;;;;;;;;7388097;19;20455;-75
2023/03/13 10:04:11;;;;;;;4.57;2.80;;;;;;;;;;7388634;19;20026;-76
2023/03/13 10:06:42;;;;;;;5.40;2.88;;;;;;;;;;7390966;19;19998;-75
2023/03/13 10:09:19;;;;;;;5.55;2.70;;;;;;;;;;7388051;19;19998;-75
2023/03/13 10:11:54;;;;;;;4.55;2.63;;;;;;;;;;7385195;19;20591;-74
2023/03/13 10:14:27;;;;;;;4.15;2.47;;;;;;;;;;7388548;19;20013;-76
2023/03/13 10:17:23;;;;;;;4.82;2.78;;;;;;;;;;7385788;19;20003;-76
2023/03/13 10:20:00;;;;;;;3.72;2.40;;;;;;;;;;7388962;19;20090;-75
2023/03/13 10:22:29;;;;;;;5.22;2.50;;;;;;;;;;7384707;19;20005;-76
2023/03/13 10:25:02;;;;;;;5.22;2.40;;;;;;;;;;7386744;19;20010;-75
2023/03/13 10:27:27;;;;;;;6.15;2.53;;;;;;;;;;7386199;19;20001;-74
2023/03/13 10:29:53;;;;;;;5.13;1.98;;;;;;;;;;7388199;19;20061;-75
2023/03/13 10:32:19;;;;;;;4.25;2.40;;;;;;;;;;7390465;19;20343;-75
2023/03/13 10:34:50;;;;;;;8.15;2.50;;;;;;;;;;7386264;19;20002;-76
2023/03/13 10:37:20;;;;;;;4.20;2.22;;;;;;;;;;7384311;19;20017;-77
2023/03/13 10:39:45;;;;;;;4.57;2.40;;;;;;;;;;7384247;19;20002;-75
2023/03/13 10:42:20;;;;;;;6.35;2.25;;;;;;;;;;7386150;19;19995;-76
2023/03/13 10:44:45;;;;;;;4.63;2.45;;;;;;;;;;7384985;19;20309;-75
2023/03/13 10:47:15;;;;;;;8.55;2.40;;;;;;;;;;7385680;19;19995;-75
2023/03/13 10:49:50;;;;;;;6.05;2.75;;;;;;;;;;7383431;19;19999;-75
2023/03/13 10:52:29;;;;;;;5.57;2.40;;;;;;;;;;7385111;19;20019;-75
2023/03/13 10:55:00;;;;;;;4.38;2.28;;;;;;;;;;7383207;19;20070;-77
2023/03/13 10:57:35;;;;;;;5.53;2.53;;;;;;;;;;7383315;19;20003;-74
2023/03/13 11:00:08;;;;;;;5.10;2.17;;;;;;;;;;7383549;19;20014;-78
2023/03/13 11:02:37;;;;;;;5.35;2.40;;;;;;;;;;7384684;19;20362;-75
2023/03/13 11:05:22;;;;;;;8.00;2.65;;;;;;;;;;7383674;19;20005;-75
2023/03/13 11:07:48;;;;;;;5.43;2.97;;;;;;;;;;7381852;19;20013;-76
2023/03/13 11:10:21;;;;;;;9.77;3.47;;;;;;;;;;7382657;19;19999;-75
2023/03/13 11:12:55;;;;;;;6.03;2.42;;;;;;;;;;7384792;19;20395;-76
2023/03/13 11:15:31;;;;;;;4.65;2.33;;;;;;;;;;7387694;19;20089;-75
2023/03/13 11:18:12;;;;;;;6.30;2.30;;;;;;;;;;7378124;19;20020;-74
2023/03/13 11:20:44;;;;;;;5.30;2.45;;;;;;;;;;7380554;19;20003;-74
2023/03/13 11:23:25;;;;;;;5.15;2.13;;;;;;;;;;7379938;19;20353;-76
2023/03/13 11:26:18;;;;;;;7.65;2.30;;;;;;;;;;7380758;19;20012;-75
2023/03/13 11:29:02;;;;;;;4.78;2.28;;;;;;;;;;7377435;19;20031;-76
2023/03/13 11:31:33;;;;;;;5.05;2.13;;;;;;;;;;7382575;19;20030;-75
2023/03/13 11:34:09;;;;;;;3.63;1.90;;;;;;;;;;7384379;19;20003;-76
2023/03/13 11:36:48;;;;;;;5.60;2.28;;;;;;;;;;7387588;19;20027;-74
2023/03/13 11:39:35;;;;;;;3.65;2.10;;;;;;;;;;7389204;19;20002;-76
2023/03/13 11:42:08;;;;;;;6.57;2.03;;;;;;;;;;7391392;19;20009;-74
2023/03/13 11:44:55;;;;;;;4.88;2.30;;;;;;;;;;7390923;19;20307;-76
2023/03/13 11:47:36;;;;;;;4.60;2.08;;;;;;;;;;7388833;19;20003;-76
2023/03/13 11:50:14;;;;;;;;;;;;;;;;;;7392096;19;20002;-75
2023/03/13 11:52:54;;;;;;;5.03;2.00;;;;;;;;;;7389838;19;19929;-77
2023/03/13 11:55:53;;;;;;;4.13;2.03;;;;;;;;;;7395554;19;19998;-77
2023/03/13 11:58:42;;;;;;;5.93;2.50;;;;;;;;;;7390707;19;19999;-76
2023/03/13 12:01:15;;;;;;;5.20;2.28;;;;;;;;;;7394732;19;20414;-76
2023/03/13 12:04:00;;;;;;;4.13;2.08;;;;;;;;;;7390132;19;19998;-76
2023/03/13 12:06:48;;;;;;;4.22;2.03;;;;;;;;;;7391117;19;20679;-75
2023/03/13 12:09:40;;;;;;;4.25;2.15;;;;;;;;;;7387975;19;20002;-76
2023/03/13 12:12:18;;;;;;;5.55;1.88;;;;;;;;;;7389653;19;20483;-76
2023/03/13 12:14:57;;;;;;;6.28;1.80;;;;;;;;;;7389474;19;20410;-76
2023/03/13 12:17:39;;;;;;;4.15;2.20;;;;;;;;;;7388478;19;20028;-76
2023/03/13 12:20:24;;;;;;;6.82;2.30;;;;;;;;;;7390011;19;20334;-76
2023/03/13 12:23:16;;;;;;;5.22;1.98;;;;;;;;;;7388493;19;20069;-76
2023/03/13 12:25:50;;;;;;;5.07;2.05;;;;;;;;;;7389508;19;20006;-76
2023/03/13 12:28:32;;;;;;;8.65;2.08;;;;;;;;;;7389046;19;20397;-76
2023/03/13 12:31:10;;;;;;;5.20;2.25;;;;;;;;;;7389321;19;20025;-76
2023/03/13 12:33:45;;;;;;;5.65;2.17;;;;;;;;;;7388398;19;20465;-76
2023/03/13 12:36:37;;;;;;;5.68;2.22;;;;;;;;;;7388404;19;20007;-77
2023/03/13 12:39:46;;;;;;;3.75;1.98;;;;;;;;;;7389486;19;20341;-76
2023/03/13 12:42:39;;;;;;;3.28;1.90;;;;;;;;;;7385110;19;20026;-76
2023/03/13 12:45:07;;;;;;;6.13;2.33;;;;;;;;;;7389000;19;20023;-76
2023/03/13 12:47:34;;;;;;;4.28;2.20;;;;;;;;;;7386752;19;20007;-74
2023/03/13 12:50:31;;;;;;;7.25;2.25;;;;;;;;;;7388923;19;20068;-76
2023/03/13 12:53:08;;;;;;;6.78;2.20;;;;;;;;;;7387874;19;20006;-76
2023/03/13 12:56:22;;;;;;;4.88;2.28;;;;;;;;;;7388613;19;20009;-76
2023/03/13 12:58:55;;;;;;;4.70;1.95;;;;;;;;;;7382915;19;20192;-76
2023/03/13 13:01:29;;;;;;;5.40;2.30;;;;;;;;;;7388253;19;20010;-75
2023/03/13 13:04:05;;;;;;;5.72;2.20;;;;;;;;;;7387450;19;20705;-75
2023/03/13 13:07:02;;;;;;;6.03;2.42;;;;;;;;;;7387858;19;20018;-75
2023/03/13 13:09:32;;;;;;;6.22;2.20;;;;;;;;;;7385818;19;20496;-74
2023/03/13 13:12:18;;;;;;;3.47;1.92;;;;;;;;;;7309639;19;20031;-74
2023/03/13 13:14:47;;;;;;;5.22;2.25;;;;;;;;;;7387083;19;20505;-75
2023/03/13 13:17:15;;;;;;;8.10;2.30;;;;;;;;;;7384459;19;20313;-75
2023/03/13 13:19:40;;;;;;;5.65;2.03;;;;;;;;;;7387986;19;20023;-75
2023/03/13 13:22:36;;;;;;;7.25;2.38;;;;;;;;;;7386348;19;19999;-76
2023/03/13 13:25:17;;;;;;;4.55;2.30;;;;;;;;;;7388707;19;19999;-74
2023/03/13 13:27:42;;;;;;;4.10;1.95;;;;;;;;;;7335468;19;1005086;-76
2023/03/13 13:30:16;;;;;;;5.10;2.20;;;;;;;;;;7390473;19;20595;-64
2023/03/13 13:32:52;;;;;;;4.35;1.90;;;;;;;;;;7386394;19;19999;-68
2023/03/13 13:35:25;;;;;;;5.13;1.90;;;;;;;;;;7388351;19;20002;-69
2023/03/13 13:37:51;;;;;;;4.07;2.00;;;;;;;;;;7382814;19;20011;-74
2023/03/13 13:40:28;;;;;;;4.20;1.67;;;;;;;;;;7388089;19;20520;-74
2023/03/13 13:42:58;;;;;;;3.70;1.70;;;;;;;;;;7384162;19;20373;-74
2023/03/13 13:45:32;;;;;;;4.18;1.90;;;;;;;;;;7383600;19;20002;-73
2023/03/13 13:48:24;;;;;;;3.42;1.80;;;;;;;;;;7381381;19;20003;-74
2023/03/13 13:51:10;;;;;;;5.22;2.15;;;;;;;;;;7384778;19;19994;-72
2023/03/13 13:53:54;;;;;;;2.50;1.73;;;;;;;;;;7382566;19;20464;-72
2023/03/13 13:56:49;;;;;;;2.95;1.60;;;;;;;;;;7381019;19;19998;-73
2023/03/13 13:59:20;;;;;;;5.88;1.90;;;;;;;;;;7379191;19;19999;-73
2023/03/13 14:01:47;;;;;;;3.30;1.60;;;;;;;;;;7381084;19;20022;-72
2023/03/13 14:04:37;;;;;;;2.95;1.80;;;;;;;;;;7383569;19;20460;-72
2023/03/13 14:07:04;;;;;;;3.60;1.80;;;;;;;;;;7389118;19;20067;-72
2023/03/13 14:09:39;;;;;;;3.75;1.77;;;;;;;;;;7382465;19;20079;-73
2023/03/13 14:12:50;;;;;;;3.22;1.52;;;;;;;;;;7384889;19;20445;-73
2023/03/13 14:15:22;;;;;;;2.45;1.60;;;;;;;;;;7381005;19;20381;-73
2023/03/13 14:17:52;;;;;;;2.50;1.50;;;;;;;;;;7379688;19;19998;-73
2023/03/13 14:20:20;;;;;;;4.10;1.80;;;;;;;;;;7382665;19;20594;-73
2023/03/13 14:22:46;;;;;;;5.28;1.75;;;;;;;;;;7382341;19;20009;-73
2023/03/13 14:25:12;;;;;;;2.42;1.60;;;;;;;;;;7383988;19;20019;-74
2023/03/13 14:27:43;;;;;;;2.25;1.40;;;;;;;;;;7386212;19;20359;-74
2023/03/13 14:30:08;;;;;;;;;;;;;;;;;;7385101;19;19998;-73
2023/03/13 14:32:34;;;;;;;4.47;1.77;;;;;;;;;;7383146;19;20333;-69
2023/03/13 14:35:00;;;;;;;2.97;1.60;;;;;;;;;;7382511;19;19999;-68
2023/03/13 14:37:34;;;;;;;3.90;1.40;;;;;;;;;;7385599;19;20027;-68
2023/03/13 14:40:10;;;;;;;1.98;1.40;;;;;;;;;;7388545;19;19991;-68
2023/03/13 14:42:38;;;;;;;4.20;1.73;;;;;;;;;;7383182;19;20330;-68
2023/03/13 14:45:12;;;;;;;2.78;1.73;;;;;;;;;;7387652;19;20019;-67
2023/03/13 14:47:37;;;;;;;2.75;1.63;;;;;;;;;;7377457;19;19995;-67
2023/03/13 14:50:10;;;;;;;2.38;1.67;;;;;;;;;;7386977;19;20011;-69
2023/03/13 14:52:36;;;;;;;4.20;1.60;;;;;;;;;;7382796;19;19991;-67
2023/03/13 14:55:06;;;;;;;3.10;1.67;;;;;;;;;;7379510;19;19998;-67
2023/03/13 14:57:33;;;;;;;2.97;1.70;;;;;;;;;;7379761;19;19991;-68